Time;durP1;ratioP1;P1;durP2;ratioP2;P2;SDS_P1;SDS_P2;PMS_P1;PMS_P2;Temp;Humidity;BMP_temperature;BMP_pressure;BME280_temperature;BME280_humidity;BME280_pressure;Samples;Min_cycle;Max_cycle;Signal;HPM_P1;HPM_P2
2022/06/01 00:00:56;;;;;;;12.30;7.50;;;11.00;99.90;;;;;;5013145;28;240265;-67
2022/06/01 00:03:24;;;;;;;13.43;7.95;;;11.00;99.90;;;;;;5021717;28;20204;-67
2022/06/01 00:05:53;;;;;;;12.65;7.47;;;11.00;99.90;;;;;;4959894;28;169477;-67
2022/06/01 00:08:23;;;;;;;12.77;7.50;;;11.10;99.90;;;;;;5014239;28;20045;-67
2022/06/01 00:10:50;;;;;;;14.77;8.25;;;11.10;99.90;;;;;;4973698;28;207080;-67
2022/06/01 00:13:17;;;;;;;14.77;8.00;;;11.10;99.90;;;;;;5024525;28;20049;-67
2022/06/01 00:15:43;;;;;;;13.25;8.32;;;11.10;99.90;;;;;;4932144;28;209587;-67
2022/06/01 00:18:10;;;;;;;17.08;9.13;;;11.00;99.90;;;;;;5020829;28;20061;-67
2022/06/01 00:20:37;;;;;;;14.80;9.07;;;11.00;99.90;;;;;;4940186;28;204975;-67
2022/06/01 00:23:03;;;;;;;12.18;7.85;;;10.90;99.90;;;;;;5020316;28;20061;-67
2022/06/01 00:25:29;;;;;;;15.23;8.32;;;10.90;99.90;;;;;;4957607;28;214447;-68
2022/06/01 00:27:55;;;;;;;14.25;9.15;;;10.90;99.90;;;;;;5025966;28;20057;-67
2022/06/01 00:30:22;;;;;;;13.20;8.32;;;10.80;99.90;;;;;;4941651;28;208649;-68
2022/06/01 00:32:48;;;;;;;12.88;8.10;;;10.80;99.90;;;;;;5015234;28;20052;-67
2022/06/01 00:35:17;;;;;;;13.55;9.00;;;10.90;99.90;;;;;;4959900;28;205234;-68
2022/06/01 00:37:43;;;;;;;14.25;8.80;;;10.90;99.90;;;;;;5026802;28;20427;-66
2022/06/01 00:40:11;;;;;;;14.32;8.35;;;10.90;99.90;;;;;;4958602;28;206741;-67
2022/06/01 00:42:40;;;;;;;11.50;7.38;;;10.90;99.90;;;;;;5020902;28;20052;-67
2022/06/01 00:45:16;;;;;;;15.68;9.13;;;10.90;99.90;;;;;;4962338;28;210490;-68
2022/06/01 00:47:42;;;;;;;14.20;9.35;;;10.90;99.90;;;;;;5019423;28;20057;-67
2022/06/01 00:50:17;;;;;;;14.02;8.98;;;11.00;99.90;;;;;;4950734;28;230660;-67
2022/06/01 00:52:50;;;;;;;14.68;8.30;;;10.90;99.90;;;;;;5018749;28;20499;-67
2022/06/01 00:55:18;;;;;;;15.50;10.10;;;11.00;99.90;;;;;;4953299;28;231765;-67
2022/06/01 00:57:47;;;;;;;13.98;8.93;;;11.00;99.90;;;;;;5029328;28;20057;-68
2022/06/01 01:00:21;;;;;;;14.32;9.27;;;11.00;99.90;;;;;;4969126;28;209511;-67
2022/06/01 01:02:49;;;;;;;13.70;9.07;;;11.00;99.90;;;;;;5032301;28;20057;-68
2022/06/01 01:05:17;;;;;;;11.52;7.82;;;11.00;99.90;;;;;;4950134;28;211545;-67
2022/06/01 01:07:44;;;;;;;12.80;8.13;;;10.90;99.90;;;;;;5027311;28;20374;-67
2022/06/01 01:10:12;;;;;;;14.82;8.90;;;11.00;99.90;;;;;;4966431;28;210018;-68
2022/06/01 01:13:01;;;;;;;15.05;8.65;;;11.00;99.90;;;;;;5018870;28;20156;-68
2022/06/01 01:15:35;;;;;;;14.10;7.68;;;10.90;99.90;;;;;;4950209;28;210158;-68
2022/06/01 01:18:06;;;;;;;14.70;10.20;;;10.90;99.90;;;;;;5020467;28;20049;-67
2022/06/01 01:20:35;;;;;;;14.65;8.40;;;10.90;99.90;;;;;;4938708;28;209726;-67
2022/06/01 01:23:24;;;;;;;14.35;9.13;;;10.90;99.90;;;;;;5026390;28;20042;-68
2022/06/01 01:25:51;;;;;;;14.25;9.38;;;10.90;99.90;;;;;;4903047;28;206191;-68
2022/06/01 01:28:18;;;;;;;14.77;8.60;;;10.90;99.90;;;;;;4968006;28;20149;-68
2022/06/01 01:30:54;;;;;;;15.38;9.20;;;11.00;99.90;;;;;;4894028;28;206543;-68
2022/06/01 01:33:24;;;;;;;15.90;10.30;;;11.00;99.90;;;;;;4982600;28;20049;-67
2022/06/01 01:35:54;;;;;;;13.48;9.25;;;10.90;99.90;;;;;;4913983;28;206906;-67
2022/06/01 01:38:58;;;;;;;13.70;9.32;;;10.90;99.90;;;;;;4970404;28;20061;-68
2022/06/01 01:41:38;;;;;;;14.23;9.50;;;10.90;99.90;;;;;;4889824;28;46539;-66
2022/06/01 01:44:34;;;;;;;15.95;9.90;;;10.90;99.90;;;;;;4881936;28;241051;-66
2022/06/01 01:47:01;;;;;;;14.68;9.63;;;10.90;99.90;;;;;;4935086;28;20067;-65
2022/06/01 01:49:35;;;;;;;13.50;10.02;;;10.90;99.90;;;;;;4876084;28;209812;-66
2022/06/01 01:52:06;;;;;;;15.18;9.35;;;10.90;99.90;;;;;;4944045;28;20043;-65
2022/06/01 01:54:45;;;;;;;15.40;9.70;;;10.90;99.90;;;;;;4881390;28;216250;-65
2022/06/01 01:57:22;;;;;;;17.20;10.30;;;10.90;99.90;;;;;;4940560;28;20483;-65
2022/06/01 02:00:17;;;;;;;18.20;9.98;;;10.90;99.90;;;;;;4885279;28;207047;-65
2022/06/01 02:03:00;;;;;;;16.88;10.63;;;10.80;99.90;;;;;;4942510;28;20069;-63
2022/06/01 02:08:25;;;;;;;15.65;11.32;;;10.80;99.90;;;;;;4975909;28;20076;-65
2022/06/01 02:13:48;;;;;;;18.00;11.20;;;10.80;99.90;;;;;;4928836;28;212410;-65
2022/06/01 02:16:15;;;;;;;17.92;11.88;;;10.70;99.90;;;;;;4964661;28;91514;-66
2022/06/01 02:18:46;;;;;;;16.63;10.73;;;10.70;99.90;;;;;;4971139;28;218898;-66
2022/06/01 02:21:20;;;;;;;15.07;11.18;;;10.70;99.90;;;;;;5001070;28;226770;-66
2022/06/01 02:23:49;;;;;;;15.80;11.75;;;10.70;99.90;;;;;;4984199;28;210209;-66
2022/06/01 02:26:18;;;;;;;15.65;11.50;;;10.60;99.90;;;;;;5004009;28;231191;-65
2022/06/01 02:28:46;;;;;;;17.50;12.20;;;10.60;99.90;;;;;;4964589;28;211982;-64
2022/06/01 02:31:15;;;;;;;18.65;12.35;;;10.60;99.90;;;;;;5006156;28;83158;-66
2022/06/01 02:33:43;;;;;;;15.73;12.60;;;10.60;99.90;;;;;;4972852;28;212628;-65
2022/06/01 02:36:11;;;;;;;16.13;11.60;;;10.60;99.90;;;;;;5015899;28;202072;-65
2022/06/01 02:38:48;;;;;;;17.63;12.30;;;10.60;99.90;;;;;;4974084;28;213633;-65
2022/06/01 02:44:01;;;;;;;16.08;12.23;;;10.60;99.90;;;;;;4978430;28;210627;-66
2022/06/01 02:46:28;;;;;;;17.50;12.32;;;10.60;99.90;;;;;;5007137;28;20041;-64
2022/06/01 02:48:55;;;;;;;17.92;13.48;;;10.60;99.90;;;;;;4985880;28;216423;-65
2022/06/01 02:51:24;;;;;;;20.38;14.07;;;10.60;99.90;;;;;;5009101;28;62137;-64
2022/06/01 02:53:50;;;;;;;16.98;12.95;;;10.60;99.90;;;;;;4974878;28;210032;-66
2022/06/01 02:56:16;;;;;;;16.63;12.68;;;10.60;99.90;;;;;;5001168;28;184414;-67
2022/06/01 02:58:42;;;;;;;19.00;14.30;;;10.60;99.90;;;;;;4972809;28;209050;-66
2022/06/01 03:01:08;;;;;;;18.80;14.65;;;10.50;99.90;;;;;;5022290;28;20048;-65
2022/06/01 03:03:36;;;;;;;19.15;14.20;;;10.50;99.90;;;;;;4972701;28;211691;-65
2022/06/01 03:06:02;;;;;;;19.73;14.20;;;10.50;99.90;;;;;;4996969;28;191139;-66
2022/06/01 03:08:28;;;;;;;16.83;13.57;;;10.50;99.90;;;;;;4976080;28;219133;-65
2022/06/01 03:10:54;;;;;;;19.48;14.15;;;10.40;99.90;;;;;;5004810;28;204309;-65
2022/06/01 03:13:23;;;;;;;18.35;14.43;;;10.40;99.90;;;;;;5022600;28;20045;-64
2022/06/01 03:15:53;;;;;;;20.13;13.85;;;10.40;99.90;;;;;;4969293;28;41473;-66
2022/06/01 03:18:21;;;;;;;19.85;15.38;;;10.40;99.90;;;;;;5023489;28;20064;-65
2022/06/01 03:20:47;;;;;;;19.13;14.68;;;10.30;99.90;;;;;;4951080;28;206567;-65
2022/06/01 03:23:13;;;;;;;18.52;15.45;;;10.30;99.90;;;;;;5022582;28;20057;-65
2022/06/01 03:25:41;;;;;;;17.42;14.13;;;10.30;99.90;;;;;;4950011;28;209037;-66
2022/06/01 03:28:07;;;;;;;19.33;15.13;;;10.30;99.90;;;;;;5020215;28;20044;-65
2022/06/01 03:30:34;;;;;;;20.67;15.70;;;10.30;99.90;;;;;;4943740;28;212511;-66
2022/06/01 03:33:00;;;;;;;17.25;14.45;;;10.30;99.90;;;;;;5024561;28;20041;-66
2022/06/01 03:35:30;;;;;;;18.60;14.18;;;10.30;99.90;;;;;;4944552;28;226375;-65
2022/06/01 03:37:57;;;;;;;19.92;15.75;;;10.30;99.90;;;;;;5022828;28;20053;-66
2022/06/01 03:40:26;;;;;;;18.65;16.08;;;10.30;99.90;;;;;;4975615;28;207091;-66
2022/06/01 03:42:52;;;;;;;18.88;15.73;;;10.30;99.90;;;;;;5021942;28;20045;-66
2022/06/01 03:48:04;;;;;;;18.88;16.08;;;10.30;99.90;;;;;;5021740;28;20049;-66
2022/06/01 03:50:30;;;;;;;19.67;16.23;;;10.40;99.90;;;;;;4961431;28;210142;-66
2022/06/01 03:52:57;;;;;;;21.40;18.23;;;10.30;99.90;;;;;;5021903;28;20061;-66
2022/06/01 03:55:23;;;;;;;18.02;15.50;;;10.40;99.90;;;;;;4970661;28;213953;-65
2022/06/01 03:57:49;;;;;;;19.20;16.65;;;10.40;99.90;;;;;;5023405;28;20060;-65
2022/06/01 04:00:21;;;;;;;19.90;17.33;;;10.40;99.90;;;;;;4955365;28;212924;-65
2022/06/01 04:02:48;;;;;;;21.23;17.63;;;10.50;99.90;;;;;;5015288;28;20526;-65
2022/06/01 04:05:14;;;;;;;22.67;17.92;;;10.50;99.90;;;;;;4961981;28;211579;-65
2022/06/01 04:07:40;;;;;;;22.88;18.23;;;10.50;99.90;;;;;;5026407;28;20045;-64
2022/06/01 04:10:08;;;;;;;20.58;17.15;;;10.60;99.90;;;;;;4974704;28;212069;-66
2022/06/01 04:12:34;;;;;;;22.48;18.10;;;10.60;99.90;;;;;;5033900;28;20121;-65
2022/06/01 04:15:01;;;;;;;20.60;17.92;;;10.60;99.90;;;;;;4961435;28;230410;-65
2022/06/01 04:17:27;;;;;;;22.45;17.95;;;10.60;99.90;;;;;;5014246;28;20376;-66
2022/06/01 04:19:53;;;;;;;21.77;18.60;;;10.60;99.90;;;;;;4947718;28;213135;-65
2022/06/01 04:22:20;;;;;;;23.08;19.88;;;10.70;99.90;;;;;;5005795;28;20525;-67
2022/06/01 04:24:47;;;;;;;21.60;19.20;;;10.60;99.90;;;;;;4962045;28;207463;-67
2022/06/01 04:27:13;;;;;;;22.52;18.75;;;10.70;99.90;;;;;;5018378;28;20057;-66
2022/06/01 04:29:39;;;;;;;22.58;18.65;;;10.70;99.90;;;;;;4971209;28;215126;-65
2022/06/01 04:32:15;;;;;;;22.00;18.50;;;10.70;99.90;;;;;;5025060;28;20064;-67
2022/06/01 04:34:41;;;;;;;22.25;17.88;;;10.80;99.90;;;;;;4961107;28;229942;-67
2022/06/01 04:37:08;;;;;;;21.92;18.10;;;10.80;99.90;;;;;;5015730;28;20866;-67
2022/06/01 04:39:34;;;;;;;22.02;17.52;;;10.80;99.90;;;;;;4976268;28;236564;-67
2022/06/01 04:42:00;;;;;;;21.33;17.15;;;10.90;99.90;;;;;;5007470;28;20050;-65
2022/06/01 04:44:26;;;;;;;21.70;16.27;;;10.90;99.90;;;;;;4966385;28;220837;-66
2022/06/01 04:46:53;;;;;;;19.13;15.25;;;11.00;99.90;;;;;;5027659;28;20597;-66
2022/06/01 04:49:19;;;;;;;20.67;15.77;;;11.00;99.90;;;;;;4967205;28;210615;-67
2022/06/01 04:51:45;;;;;;;19.50;15.60;;;11.00;99.90;;;;;;5020682;28;20052;-65
2022/06/01 04:54:11;;;;;;;19.25;16.75;;;11.10;99.90;;;;;;4974145;28;217084;-66
2022/06/01 04:56:37;;;;;;;19.45;16.30;;;11.10;99.90;;;;;;5020607;28;20057;-66
2022/06/01 04:59:03;;;;;;;19.80;15.98;;;11.10;99.90;;;;;;4965935;28;210257;-66
2022/06/01 05:01:29;;;;;;;21.33;16.50;;;11.10;99.90;;;;;;5026929;28;20053;-66
2022/06/01 05:03:56;;;;;;;20.02;17.10;;;11.20;99.90;;;;;;4969854;28;203012;-67
2022/06/01 05:06:23;;;;;;;20.08;15.75;;;11.20;99.90;;;;;;4981554;28;170372;-66
2022/06/01 05:08:49;;;;;;;19.50;15.30;;;11.30;99.90;;;;;;4990636;28;211941;-65
2022/06/01 05:11:15;;;;;;;17.77;14.98;;;11.30;99.90;;;;;;5024396;28;20064;-66
2022/06/01 05:13:41;;;;;;;17.38;14.60;;;11.30;99.90;;;;;;4974035;28;213988;-65
2022/06/01 05:16:07;;;;;;;17.35;13.82;;;11.40;99.90;;;;;;4980743;28;45634;-67
2022/06/01 05:18:33;;;;;;;17.13;13.77;;;11.50;99.90;;;;;;4984807;28;213482;-66
2022/06/01 05:21:00;;;;;;;18.90;14.50;;;11.50;99.90;;;;;;4983126;28;238831;-66
2022/06/01 05:23:26;;;;;;;18.10;14.35;;;11.50;99.90;;;;;;4995916;28;224820;-66
2022/06/01 05:25:54;;;;;;;19.02;15.23;;;11.60;99.90;;;;;;4989688;28;206384;-66
2022/06/01 05:28:25;;;;;;;18.83;15.65;;;11.60;99.90;;;;;;5021626;28;20049;-65
2022/06/01 05:31:06;;;;;;;19.00;15.75;;;11.70;99.90;;;;;;4970770;28;204243;-66
2022/06/01 05:33:33;;;;;;;19.65;16.05;;;11.70;99.90;;;;;;4974605;28;213546;-66
2022/06/01 05:35:59;;;;;;;19.60;15.45;;;11.80;99.90;;;;;;5013034;28;62981;-65
2022/06/01 05:38:25;;;;;;;20.38;15.00;;;11.90;99.90;;;;;;4995780;28;212471;-64
2022/06/01 05:40:52;;;;;;;16.65;13.68;;;11.90;99.90;;;;;;4999163;28;179662;-64
2022/06/01 05:43:19;;;;;;;15.98;12.63;;;12.00;99.90;;;;;;5018213;28;20403;-67
2022/06/01 05:45:46;;;;;;;15.73;12.93;;;12.00;99.90;;;;;;4973628;28;214623;-65
2022/06/01 05:48:15;;;;;;;15.23;12.32;;;12.10;99.90;;;;;;5023304;28;20456;-65
2022/06/01 05:50:42;;;;;;;15.05;11.88;;;12.10;99.90;;;;;;4974377;28;212767;-65
2022/06/01 05:53:08;;;;;;;14.55;11.85;;;12.20;99.90;;;;;;5011275;28;20053;-63
2022/06/01 05:55:36;;;;;;;16.80;11.32;;;12.20;99.90;;;;;;4967437;28;218144;-65
2022/06/01 05:58:12;;;;;;;16.60;11.60;;;12.30;99.90;;;;;;5025110;28;20033;-64
2022/06/01 06:00:38;;;;;;;15.13;11.05;;;12.30;99.90;;;;;;4966219;28;210091;-65
2022/06/01 06:03:05;;;;;;;15.45;11.55;;;12.30;99.90;;;;;;5027178;28;20049;-65
2022/06/01 06:08:15;;;;;;;17.75;12.25;;;12.30;99.90;;;;;;5024558;28;20045;-63
2022/06/01 06:10:42;;;;;;;15.00;12.35;;;12.30;99.90;;;;;;4939019;28;215647;-64
2022/06/01 06:13:08;;;;;;;17.08;13.85;;;12.40;99.90;;;;;;5013982;28;20049;-63
2022/06/01 06:15:34;;;;;;;16.77;13.57;;;12.40;99.90;;;;;;4949319;28;209139;-63
2022/06/01 06:18:00;;;;;;;21.27;15.07;;;12.50;99.90;;;;;;5033710;28;20060;-64
2022/06/01 06:20:26;;;;;;;17.30;15.07;;;12.50;99.90;;;;;;4965525;28;210921;-65
2022/06/01 06:22:53;;;;;;;20.23;16.45;;;12.60;99.90;;;;;;5029873;28;20054;-64
2022/06/01 06:25:20;;;;;;;19.70;16.77;;;12.70;99.90;;;;;;4970441;28;213436;-64
2022/06/01 06:27:46;;;;;;;22.80;17.15;;;12.80;99.90;;;;;;5032323;28;20036;-65
2022/06/01 06:30:14;;;;;;;20.13;16.58;;;12.90;99.90;;;;;;4949192;28;228009;-65
2022/06/01 06:32:40;;;;;;;20.33;16.98;;;13.10;99.90;;;;;;5025796;28;20038;-63
2022/06/01 06:35:07;;;;;;;20.73;17.80;;;13.30;99.90;;;;;;4974203;28;219273;-63
2022/06/01 06:37:33;;;;;;;20.30;17.23;;;13.40;99.90;;;;;;5027795;28;20220;-64
2022/06/01 06:39:59;;;;;;;21.33;18.08;;;13.60;99.90;;;;;;4966089;28;209449;-64
2022/06/01 06:42:25;;;;;;;20.10;16.58;;;13.70;99.90;;;;;;5029964;28;20426;-65
2022/06/01 06:44:51;;;;;;;17.95;15.13;;;13.80;99.90;;;;;;4959835;28;269205;-65
2022/06/01 06:47:18;;;;;;;19.17;14.80;;;13.90;99.90;;;;;;5019072;28;20065;-63
2022/06/01 06:49:45;;;;;;;17.60;14.25;;;14.10;99.90;;;;;;4970090;28;216520;-65
2022/06/01 06:52:11;;;;;;;16.55;14.32;;;14.20;99.90;;;;;;5026885;28;20049;-65
2022/06/01 06:54:37;;;;;;;15.52;11.85;;;14.20;99.90;;;;;;4966077;28;216773;-64
2022/06/01 06:57:03;;;;;;;14.43;9.93;;;14.30;99.90;;;;;;5005572;28;20056;-64
2022/06/01 06:59:29;;;;;;;15.18;11.45;;;14.20;99.90;;;;;;4959073;28;207275;-64
2022/06/01 07:01:55;;;;;;;15.40;11.63;;;14.20;99.90;;;;;;5020357;28;20041;-65
2022/06/01 07:04:21;;;;;;;20.60;11.57;;;14.10;99.90;;;;;;4948117;28;219056;-67
2022/06/01 07:06:48;;;;;;;16.52;12.48;;;14.10;99.90;;;;;;5014949;28;20413;-68
2022/06/01 07:09:14;;;;;;;16.45;12.40;;;14.00;99.90;;;;;;4958086;28;236563;-68
2022/06/01 07:11:40;;;;;;;17.38;12.85;;;13.90;99.90;;;;;;5005994;28;20056;-66
2022/06/01 07:14:06;;;;;;;15.02;11.88;;;13.80;99.90;;;;;;4961399;28;219992;-67
2022/06/01 07:16:35;;;;;;;17.30;12.70;;;13.70;99.90;;;;;;5026821;28;20049;-67
2022/06/01 07:19:04;;;;;;;20.50;14.00;;;13.50;99.90;;;;;;4966086;28;207776;-68
2022/06/01 07:21:30;;;;;;;17.40;14.18;;;13.40;99.90;;;;;;5021512;28;20056;-66
2022/06/01 07:23:57;;;;;;;19.17;14.38;;;13.40;99.90;;;;;;4973641;28;200359;-67
2022/06/01 07:26:32;;;;;;;18.10;14.32;;;13.40;99.90;;;;;;4998726;28;44457;-67
2022/06/01 07:28:59;;;;;;;18.65;14.35;;;13.50;99.90;;;;;;4981557;28;213466;-65
2022/06/01 07:31:25;;;;;;;19.75;14.45;;;13.60;99.90;;;;;;5013688;28;233893;-67
2022/06/01 07:33:51;;;;;;;18.55;14.73;;;13.70;99.90;;;;;;4972817;28;217022;-66
2022/06/01 07:36:19;;;;;;;19.05;15.73;;;13.80;99.90;;;;;;5020926;28;30641;-64
2022/06/01 07:44:25;;;;;;;18.63;14.40;;;14.50;99.90;;;;;;4958678;28;213808;-65
2022/06/01 07:46:52;;;;;;;17.05;12.50;;;14.60;99.90;;;;;;4996928;28;20049;-66
2022/06/01 07:49:19;;;;;;;13.93;10.60;;;14.70;99.90;;;;;;4964458;28;205682;-66
2022/06/01 07:51:47;;;;;;;16.42;12.82;;;14.80;99.90;;;;;;5008285;28;20057;-65
2022/06/01 07:54:14;;;;;;;16.10;11.68;;;15.00;99.90;;;;;;4961597;28;210498;-65
2022/06/01 07:56:41;;;;;;;15.82;11.20;;;15.20;99.90;;;;;;5029287;28;20056;-65
2022/06/01 07:59:08;;;;;;;14.70;10.30;;;15.10;99.90;;;;;;4959985;28;211981;-66
2022/06/01 08:01:35;;;;;;;15.38;11.07;;;15.00;99.90;;;;;;5029508;28;20045;-65
2022/06/01 08:04:03;;;;;;;15.68;10.57;;;14.90;99.90;;;;;;4976822;28;217766;-67
2022/06/01 08:06:32;;;;;;;15.82;11.13;;;14.90;99.90;;;;;;4978935;28;156857;-66
2022/06/01 08:08:58;;;;;;;13.85;9.70;;;14.80;99.90;;;;;;4983526;28;227482;-67
2022/06/01 08:14:14;;;;;;;14.98;10.98;;;14.70;99.90;;;;;;4903029;28;207579;-66
2022/06/01 08:16:41;;;;;;;14.90;11.38;;;14.70;99.90;;;;;;4950958;28;20054;-67
2022/06/01 08:19:09;;;;;;;15.50;10.40;;;14.60;99.90;;;;;;4897044;28;219733;-67
2022/06/01 08:21:37;;;;;;;12.65;8.40;;;14.50;99.90;;;;;;4958754;28;20047;-65
2022/06/01 08:24:04;;;;;;;13.13;8.52;;;14.50;99.90;;;;;;4889643;28;238315;-67
2022/06/01 08:26:31;;;;;;;15.68;8.95;;;14.30;99.90;;;;;;4930746;28;20059;-67
2022/06/01 08:28:57;;;;;;;15.00;8.70;;;14.30;99.90;;;;;;4909954;28;207514;-66
2022/06/01 08:31:27;;;;;;;13.15;8.95;;;14.40;99.90;;;;;;4930615;28;193862;-67
2022/06/01 08:33:57;;;;;;;15.13;9.02;;;14.60;99.90;;;;;;4913330;28;205842;-65
2022/06/01 08:36:23;;;;;;;12.63;8.63;;;14.90;99.90;;;;;;4917171;28;133000;-66
2022/06/01 08:38:50;;;;;;;12.38;8.95;;;15.00;99.90;;;;;;4926719;28;49154;-67
2022/06/01 08:41:22;;;;;;;13.52;8.48;;;15.30;99.90;;;;;;4927390;28;155361;-67
2022/06/01 08:43:54;;;;;;;12.30;7.35;;;15.80;99.90;;;;;;4914489;28;205724;-68
2022/06/01 08:46:22;;;;;;;16.38;7.88;;;16.30;99.90;;;;;;4927713;28;77763;-66
2022/06/01 08:48:53;;;;;;;11.10;7.20;;;17.00;99.90;;;;;;4912724;28;220230;-67
2022/06/01 08:51:25;;;;;;;11.30;6.43;;;17.40;99.90;;;;;;4972002;28;214489;-66
2022/06/01 08:53:51;;;;;;;11.70;6.68;;;17.60;99.90;;;;;;4976595;28;216803;-68
2022/06/01 08:56:26;;;;;;;10.48;5.60;;;17.50;99.90;;;;;;4986317;28;168527;-67
2022/06/01 08:58:57;;;;;;;10.45;5.25;;;17.30;99.90;;;;;;4998193;28;149221;-66
2022/06/01 09:01:41;;;;;;;9.02;4.63;;;17.00;99.90;;;;;;4997845;28;203910;-67
2022/06/01 09:04:28;;;;;;;7.78;3.97;;;16.80;99.90;;;;;;4948354;28;213379;-65
2022/06/01 09:07:17;;;;;;;10.90;4.55;;;16.40;99.90;;;;;;5018293;28;20049;-67
2022/06/01 09:10:13;;;;;;;9.85;3.90;;;16.10;99.90;;;;;;4957195;28;239066;-69
2022/06/01 09:12:41;;;;;;;8.82;3.97;;;15.80;99.90;;;;;;5029964;28;20056;-68
2022/06/01 09:15:29;;;;;;;10.35;4.47;;;15.60;99.90;;;;;;4953287;28;211650;-68
2022/06/01 09:17:55;;;;;;;10.30;5.90;;;15.50;99.90;;;;;;5040633;28;20196;-68
2022/06/01 09:23:26;;;;;;;10.27;5.50;;;15.20;99.90;;;;;;4962678;28;171735;-69
2022/06/01 09:25:56;;;;;;;9.43;5.97;;;15.20;99.90;;;;;;4957218;28;204102;-67
2022/06/01 09:28:28;;;;;;;10.05;5.60;;;15.30;99.90;;;;;;4988566;28;20058;-68
2022/06/01 09:31:01;;;;;;;9.15;4.82;;;15.50;99.90;;;;;;4916548;28;206109;-68
2022/06/01 09:33:37;;;;;;;8.02;3.70;;;15.90;99.90;;;;;;4957278;28;201338;-66
2022/06/01 09:36:06;;;;;;;7.85;3.70;;;16.60;99.90;;;;;;4974542;28;207790;-68
2022/06/01 09:38:51;;;;;;;8.23;3.10;;;17.00;99.90;;;;;;4956557;28;206846;-68
2022/06/01 09:41:36;;;;;;;7.75;2.47;;;17.40;99.90;;;;;;4990860;28;162778;-67
2022/06/01 09:44:05;;;;;;;7.15;2.72;;;17.70;99.90;;;;;;4906732;28;236220;-67
2022/06/01 09:46:47;;;;;;;7.65;2.80;;;18.30;99.90;;;;;;4991081;28;20057;-67
2022/06/01 09:49:25;;;;;;;7.40;2.60;;;18.60;99.90;;;;;;4950303;28;110111;-69
2022/06/01 09:52:12;;;;;;;7.28;2.45;;;19.10;99.90;;;;;;4995929;28;20511;-69
2022/06/01 09:54:51;;;;;;;6.30;2.00;;;19.50;99.90;;;;;;4955433;28;242336;-68
2022/06/01 09:57:32;;;;;;;9.00;2.40;;;19.40;99.90;;;;;;5023997;28;20057;-69
2022/06/01 10:08:26;;;;;;;6.72;2.20;;;20.70;99.90;;;;;;4963969;28;20062;-69
2022/06/01 10:11:03;;;;;;;5.82;1.92;;;20.80;98.70;;;;;;4929484;28;162137;-68
2022/06/01 10:13:34;;;;;;;6.82;2.08;;;20.40;96.80;;;;;;4921772;28;188936;-68
2022/06/01 10:16:14;;;;;;;6.68;1.90;;;20.00;96.70;;;;;;4968311;28;45633;-68
2022/06/01 10:18:43;;;;;;;6.25;1.85;;;19.60;95.00;;;;;;4935564;28;47748;-68
2022/06/01 10:21:13;;;;;;;5.90;1.80;;;19.20;94.80;;;;;;4967876;28;44039;-67
2022/06/01 10:23:48;;;;;;;6.45;2.10;;;19.10;94.30;;;;;;4929630;28;206780;-67
2022/06/01 10:26:29;;;;;;;7.40;2.13;;;19.30;96.10;;;;;;4965103;28;70400;-67
2022/06/01 10:29:13;;;;;;;7.20;2.70;;;19.50;91.10;;;;;;4920893;28;206161;-68
2022/06/01 10:32:04;;;;;;;6.00;2.22;;;19.80;95.70;;;;;;4945618;28;20046;-67
2022/06/01 10:34:52;;;;;;;;;;;20.20;94.00;;;;;;4912515;28;230951;-68
2022/06/01 10:38:05;;;;;;;6.30;2.30;;;20.40;94.20;;;;;;4963096;28;19930;-67
2022/06/01 10:40:39;;;;;;;7.03;2.50;;;20.40;89.90;;;;;;4942839;28;141520;-67
2022/06/01 10:43:19;;;;;;;6.75;2.28;;;20.80;92.40;;;;;;5019465;28;20572;-68
2022/06/01 10:45:52;;;;;;;5.50;1.60;;;21.10;90.50;;;;;;4943490;28;206998;-67
2022/06/01 10:48:38;;;;;;;6.72;2.00;;;20.90;80.60;;;;;;5028830;28;20498;-67
2022/06/01 10:51:07;;;;;;;7.00;2.50;;;20.50;71.50;;;;;;4933925;28;206795;-67
2022/06/01 10:53:45;;;;;;;6.63;2.28;;;19.10;77.80;;;;;;4971497;28;206147;-67
2022/06/01 10:56:13;;;;;;;7.00;2.30;;;18.20;86.50;;;;;;4961460;28;144248;-67
2022/06/01 10:58:39;;;;;;;6.15;1.90;;;17.10;96.20;;;;;;4975874;28;207616;-67
2022/06/01 11:01:23;;;;;;;6.45;1.20;;;16.00;99.90;;;;;;5006266;28;20049;-67
2022/06/01 11:04:11;;;;;;;5.53;1.00;;;15.10;99.90;;;;;;4977508;28;202687;-67
2022/06/01 11:06:53;;;;;;;4.72;0.90;;;14.50;99.90;;;;;;4944383;28;283160;-67
2022/06/01 11:09:28;;;;;;;3.08;0.80;;;13.80;99.90;;;;;;4975340;28;74910;-67
2022/06/01 11:11:54;;;;;;;3.92;0.90;;;13.70;99.90;;;;;;5016776;28;20061;-69
2022/06/01 11:14:45;;;;;;;4.15;1.00;;;13.40;99.90;;;;;;4960571;28;206700;-70
2022/06/01 11:17:47;;;;;;;3.72;0.90;;;13.40;99.90;;;;;;5010621;28;20049;-70
2022/06/01 11:20:31;;;;;;;;;;;13.50;99.90;;;;;;4921290;28;206126;-69
2022/06/01 11:22:57;;;;;;;6.80;0.90;;;14.00;99.90;;;;;;4994162;28;19948;-69
2022/06/01 11:25:33;;;;;;;2.05;0.70;;;14.80;99.90;;;;;;4899843;28;207121;-70
2022/06/01 11:28:27;;;;;;;2.38;0.70;;;15.30;99.90;;;;;;4989643;28;20504;-69
2022/06/01 11:31:21;;;;;;;2.90;0.70;;;15.50;99.90;;;;;;4925524;28;208681;-69
2022/06/01 11:34:14;;;;;;;3.08;0.70;;;15.30;99.90;;;;;;4955364;28;117242;-68
2022/06/01 11:37:04;;;;;;;1.33;0.60;;;15.40;99.90;;;;;;4961305;28;20053;-69
2022/06/01 11:40:09;;;;;;;3.30;0.70;;;16.30;99.90;;;;;;4937146;28;150959;-68
2022/06/01 11:42:47;;;;;;;1.73;0.70;;;17.00;99.90;;;;;;4987752;28;20046;-68
2022/06/01 11:45:21;;;;;;;1.60;0.50;;;17.60;98.30;;;;;;4922263;28;235324;-68
2022/06/01 11:47:53;;;;;;;2.95;0.70;;;17.10;98.90;;;;;;4992363;28;20065;-68
2022/06/01 11:50:32;;;;;;;1.75;0.60;;;16.80;99.90;;;;;;4925876;28;206052;-67
2022/06/01 11:52:58;;;;;;;2.03;0.60;;;17.40;99.90;;;;;;4987273;28;20061;-68
2022/06/01 11:56:05;;;;;;;1.63;0.60;;;17.90;99.90;;;;;;4943616;28;231979;-67
2022/06/01 11:58:31;;;;;;;2.17;0.70;;;18.10;96.10;;;;;;4978328;28;212689;-67
2022/06/01 12:01:28;;;;;;;1.98;0.60;;;17.80;98.20;;;;;;5006048;28;195184;-66
2022/06/01 12:04:10;;;;;;;2.65;0.50;;;18.40;98.80;;;;;;4978577;28;215105;-67
2022/06/01 12:07:05;;;;;;;1.25;0.60;;;18.80;96.70;;;;;;5006945;28;112562;-68
2022/06/01 12:10:05;;;;;;;2.85;0.70;;;18.90;91.90;;;;;;4964741;28;218187;-67
2022/06/01 12:12:37;;;;;;;1.77;0.70;;;19.20;96.30;;;;;;5024788;28;20384;-67
2022/06/01 12:15:14;;;;;;;1.65;0.60;;;20.00;91.50;;;;;;4953529;28;207216;-68
2022/06/01 12:18:04;;;;;;;2.22;0.60;;;19.90;95.20;;;;;;5026573;28;20061;-67
2022/06/01 12:20:33;;;;;;;3.72;1.00;;;19.80;91.90;;;;;;4975263;28;210945;-68
2022/06/01 12:29:29;;;;;;;3.53;1.03;;;18.00;93.30;;;;;;4966669;28;218182;-68
2022/06/01 12:31:55;;;;;;;4.97;1.27;;;17.70;95.20;;;;;;5022432;28;20058;-67
2022/06/01 12:34:27;;;;;;;4.60;1.20;;;17.60;96.40;;;;;;4959059;28;214659;-67
2022/06/01 12:36:58;;;;;;;6.53;2.17;;;17.60;96.60;;;;;;5017661;28;20510;-67
2022/06/01 12:39:24;;;;;;;;;;;17.30;96.90;;;;;;4960923;28;219448;-68
2022/06/01 12:41:59;;;;;;;6.20;2.13;;;17.30;98.50;;;;;;5023894;28;19995;-68
2022/06/01 12:44:26;;;;;;;2.47;0.80;;;16.80;98.40;;;;;;4955198;28;215807;-68
2022/06/01 12:46:52;;;;;;;2.15;0.70;;;16.20;96.80;;;;;;5010924;28;20050;-68
2022/06/01 12:49:24;;;;;;;2.72;0.73;;;15.70;97.70;;;;;;4963498;28;220857;-68
2022/06/01 12:51:54;;;;;;;3.25;0.90;;;15.40;99.30;;;;;;5024241;28;20072;-67
2022/06/01 12:54:26;;;;;;;4.10;0.90;;;15.10;99.90;;;;;;4961949;28;237571;-67
2022/06/01 12:56:52;;;;;;;3.58;1.02;;;14.50;99.90;;;;;;5034112;28;20057;-70
2022/06/01 12:59:19;;;;;;;6.68;1.20;;;14.20;99.90;;;;;;4959197;28;205278;-69
2022/06/01 13:01:50;;;;;;;3.58;1.10;;;13.80;99.90;;;;;;5022775;28;20057;-68
2022/06/01 13:04:22;;;;;;;3.58;0.93;;;13.50;99.90;;;;;;4936490;28;206103;-68
2022/06/01 13:06:50;;;;;;;4.15;1.05;;;13.40;99.90;;;;;;5002276;28;20168;-68
2022/06/01 13:09:22;;;;;;;4.50;1.13;;;13.50;99.90;;;;;;4969391;28;239953;-68
2022/06/01 13:12:00;;;;;;;3.47;1.00;;;13.70;99.90;;;;;;5031028;28;20053;-68
2022/06/01 13:14:29;;;;;;;3.60;1.20;;;13.60;99.90;;;;;;4966789;28;216489;-68
2022/06/01 13:17:10;;;;;;;4.20;1.10;;;13.70;99.90;;;;;;5034501;28;20060;-68
2022/06/01 13:19:39;;;;;;;5.00;1.10;;;13.90;99.90;;;;;;4972056;28;242238;-67
2022/06/01 13:22:19;;;;;;;3.42;0.98;;;14.10;99.90;;;;;;5022090;28;20073;-67
2022/06/01 13:24:54;;;;;;;3.17;0.98;;;14.40;99.90;;;;;;4962977;28;217737;-69
2022/06/01 13:27:21;;;;;;;2.60;0.80;;;14.50;99.90;;;;;;5021481;28;20164;-67
2022/06/01 13:29:52;;;;;;;2.53;0.75;;;14.70;99.90;;;;;;4940192;28;221224;-68
2022/06/01 13:32:28;;;;;;;2.55;0.77;;;14.90;99.90;;;;;;5011220;28;20061;-68